sensor_id;sensor_type;location;lat;lon;timestamp;P1;durP1;ratioP1;P2;durP2;ratioP2
49900;SDS011;35789;48.414;12.768;2024-02-14T00:00:00;12.2;;;4.5;;
49900;SDS011;35789;48.414;12.768;2024-02-14T00:05:00;12.2;;;4.5;;
49900;SDS011;35789;48.414;12.768;2024-02-14T00:10:00;12.2;;;4.5;;
49900;SDS011;35789;48.414;12.768;2024-02-14T00:15:00;12.2;;;4.5;;
49900;SDS011;35789;48.414;12.768;2024-02-14T00:20:00;12.2;;;4.5;;
49900;SDS011;35789;48.414;12.768;2024-02-14T00:25:00;9.7;;;4.5;;
49900;SDS011;35789;48.414;12.768;2024-02-14T00:30:00;9.7;;;4.5;;
49900;SDS011;35789;48.414;12.768;2024-02-14T00:35:00;9.7;;;4.5;;
49900;SDS011;35789;48.414;12.768;2024-02-14T00:40:00;9.7;;;4.5;;
49900;SDS011;35789;48.414;12.768;2024-02-14T00:45:00;9.7;;;4.5;;
49900;SDS011;35789;48.414;12.768;2024-02-14T00:50:00;9.7;;;4.5;;
49900;SDS011;35789;48.414;12.768;2024-02-14T00:55:00;13.5;;;6.1;;
49900;SDS011;35789;48.414;12.768;2024-02-14T01:00:00;13.5;;;6.1;;
49900;SDS011;35789;48.414;12.768;2024-02-14T01:05:00;13.5;;;6.1;;
49900;SDS011;35789;48.414;12.768;2024-02-14T01:10:00;13.5;;;6.1;;
49900;SDS011;35789;48.414;12.768;2024-02-14T01:15:00;13.5;;;6.1;;
49900;SDS011;35789;48.414;12.768;2024-02-14T01:20:00;13.5;;;6.1;;
49900;SDS011;35789;48.414;12.768;2024-02-14T01:25:00;31.3;;;12.5;;
49900;SDS011;35789;48.414;12.768;2024-02-14T01:30:00;31.3;;;12.5;;
49900;SDS011;35789;48.414;12.768;2024-02-14T01:35:00;31.3;;;12.5;;
49900;SDS011;35789;48.414;12.768;2024-02-14T01:40:00;31.3;;;12.5;;
49900;SDS011;35789;48.414;12.768;2024-02-14T01:45:00;31.3;;;12.5;;
49900;SDS011;35789;48.414;12.768;2024-02-14T01:50:01;31.3;;;12.5;;
49900;SDS011;35789;48.414;12.768;2024-02-14T02:00:03;16.9;;;6.3;;
49900;SDS011;35789;48.414;12.768;2024-02-14T02:05:00;16.9;;;6.3;;
49900;SDS011;35789;48.414;12.768;2024-02-14T02:10:00;16.9;;;6.3;;
49900;SDS011;35789;48.414;12.768;2024-02-14T02:15:00;16.9;;;6.3;;
49900;SDS011;35789;48.414;12.768;2024-02-14T02:20:00;16.9;;;6.3;;
49900;SDS011;35789;48.414;12.768;2024-02-14T02:25:00;20.0;;;7.1;;
49900;SDS011;35789;48.414;12.768;2024-02-14T02:30:00;20.0;;;7.1;;
49900;SDS011;35789;48.414;12.768;2024-02-14T02:35:00;20.0;;;7.1;;
49900;SDS011;35789;48.414;12.768;2024-02-14T02:40:00;20.0;;;7.1;;
49900;SDS011;35789;48.414;12.768;2024-02-14T02:45:00;20.0;;;7.1;;
49900;SDS011;35789;48.414;12.768;2024-02-14T02:50:00;20.0;;;7.1;;
49900;SDS011;35789;48.414;12.768;2024-02-14T02:55:00;9.5;;;4.8;;
49900;SDS011;35789;48.414;12.768;2024-02-14T03:00:00;9.5;;;4.8;;
49900;SDS011;35789;48.414;12.768;2024-02-14T03:05:00;9.5;;;4.8;;
49900;SDS011;35789;48.414;12.768;2024-02-14T03:10:00;9.5;;;4.8;;
49900;SDS011;35789;48.414;12.768;2024-02-14T03:15:03;9.5;;;4.8;;
49900;SDS011;35789;48.414;12.768;2024-02-14T03:20:00;9.5;;;4.8;;
49900;SDS011;35789;48.414;12.768;2024-02-14T03:25:00;9.7;;;4.3;;
49900;SDS011;35789;48.414;12.768;2024-02-14T03:30:00;9.7;;;4.3;;
49900;SDS011;35789;48.414;12.768;2024-02-14T03:35:00;9.7;;;4.3;;
49900;SDS011;35789;48.414;12.768;2024-02-14T03:40:00;9.7;;;4.3;;
49900;SDS011;35789;48.414;12.768;2024-02-14T03:45:00;9.7;;;4.3;;
49900;SDS011;35789;48.414;12.768;2024-02-14T03:50:00;9.7;;;4.3;;
49900;SDS011;35789;48.414;12.768;2024-02-14T03:55:00;10.9;;;5.1;;
49900;SDS011;35789;48.414;12.768;2024-02-14T04:00:00;10.9;;;5.1;;
49900;SDS011;35789;48.414;12.768;2024-02-14T04:05:00;10.9;;;5.1;;
49900;SDS011;35789;48.414;12.768;2024-02-14T04:10:02;10.9;;;5.1;;
49900;SDS011;35789;48.414;12.768;2024-02-14T04:15:00;10.9;;;5.1;;
49900;SDS011;35789;48.414;12.768;2024-02-14T04:20:00;10.9;;;5.1;;
49900;SDS011;35789;48.414;12.768;2024-02-14T04:25:00;8.9;;;4.0;;
49900;SDS011;35789;48.414;12.768;2024-02-14T04:30:01;8.9;;;4.0;;
49900;SDS011;35789;48.414;12.768;2024-02-14T04:35:00;8.9;;;4.0;;
49900;SDS011;35789;48.414;12.768;2024-02-14T04:40:00;8.9;;;4.0;;
49900;SDS011;35789;48.414;12.768;2024-02-14T04:45:00;8.9;;;4.0;;
49900;SDS011;35789;48.414;12.768;2024-02-14T04:50:00;8.9;;;4.0;;
49900;SDS011;35789;48.414;12.768;2024-02-14T04:55:00;7.8;;;3.8;;
49900;SDS011;35789;48.414;12.768;2024-02-14T05:00:00;7.8;;;3.8;;
49900;SDS011;35789;48.414;12.768;2024-02-14T05:05:00;7.8;;;3.8;;
49900;SDS011;35789;48.414;12.768;2024-02-14T05:10:00;7.8;;;3.8;;
49900;SDS011;35789;48.414;12.768;2024-02-14T05:15:00;7.8;;;3.8;;
49900;SDS011;35789;48.414;12.768;2024-02-14T05:20:00;7.8;;;3.8;;
49900;SDS011;35789;48.414;12.768;2024-02-14T05:25:00;8.3;;;3.9;;
49900;SDS011;35789;48.414;12.768;2024-02-14T05:30:00;8.3;;;3.9;;
49900;SDS011;35789;48.414;12.768;2024-02-14T05:35:00;8.3;;;3.9;;
49900;SDS011;35789;48.414;12.768;2024-02-14T05:40:00;8.3;;;3.9;;
49900;SDS011;35789;48.414;12.768;2024-02-14T05:45:00;8.3;;;3.9;;
49900;SDS011;35789;48.414;12.768;2024-02-14T05:50:00;8.3;;;3.9;;
49900;SDS011;35789;48.414;12.768;2024-02-14T05:55:00;10.4;;;4.9;;
49900;SDS011;35789;48.414;12.768;2024-02-14T06:00:00;10.4;;;4.9;;
49900;SDS011;35789;48.414;12.768;2024-02-14T06:05:00;10.4;;;4.9;;
49900;SDS011;35789;48.414;12.768;2024-02-14T06:10:00;10.4;;;4.9;;
49900;SDS011;35789;48.414;12.768;2024-02-14T06:15:00;10.4;;;4.9;;
49900;SDS011;35789;48.414;12.768;2024-02-14T06:20:00;10.4;;;4.9;;
49900;SDS011;35789;48.414;12.768;2024-02-14T06:25:00;10.7;;;4.5;;
49900;SDS011;35789;48.414;12.768;2024-02-14T06:30:00;10.7;;;4.5;;
49900;SDS011;35789;48.414;12.768;2024-02-14T06:35:00;10.7;;;4.5;;
49900;SDS011;35789;48.414;12.768;2024-02-14T06:40:00;10.7;;;4.5;;
49900;SDS011;35789;48.414;12.768;2024-02-14T06:45:00;10.7;;;4.5;;
49900;SDS011;35789;48.414;12.768;2024-02-14T06:50:00;10.7;;;4.5;;
49900;SDS011;35789;48.414;12.768;2024-02-14T06:55:00;13.4;;;5.4;;
49900;SDS011;35789;48.414;12.768;2024-02-14T07:00:00;13.4;;;5.4;;
49900;SDS011;35789;48.414;12.768;2024-02-14T07:05:00;13.4;;;5.4;;
49900;SDS011;35789;48.414;12.768;2024-02-14T07:10:00;13.4;;;5.4;;
49900;SDS011;35789;48.414;12.768;2024-02-14T07:15:00;13.4;;;5.4;;
49900;SDS011;35789;48.414;12.768;2024-02-14T07:20:01;13.4;;;5.4;;
49900;SDS011;35789;48.414;12.768;2024-02-14T07:25:00;24.1;;;11.5;;
49900;SDS011;35789;48.414;12.768;2024-02-14T07:30:00;24.1;;;11.5;;
49900;SDS011;35789;48.414;12.768;2024-02-14T07:35:02;24.1;;;11.5;;
49900;SDS011;35789;48.414;12.768;2024-02-14T07:40:00;24.1;;;11.5;;
49900;SDS011;35789;48.414;12.768;2024-02-14T07:45:00;24.1;;;11.5;;
49900;SDS011;35789;48.414;12.768;2024-02-14T07:50:00;24.1;;;11.5;;
49900;SDS011;35789;48.414;12.768;2024-02-14T07:55:00;13.9;;;6.3;;
49900;SDS011;35789;48.414;12.768;2024-02-14T08:00:00;13.9;;;6.3;;
49900;SDS011;35789;48.414;12.768;2024-02-14T08:05:00;13.9;;;6.3;;
49900;SDS011;35789;48.414;12.768;2024-02-14T08:10:00;13.9;;;6.3;;
49900;SDS011;35789;48.414;12.768;2024-02-14T08:15:00;13.9;;;6.3;;
49900;SDS011;35789;48.414;12.768;2024-02-14T08:20:00;10.7;;;4.9;;
49900;SDS011;35789;48.414;12.768;2024-02-14T08:25:00;10.7;;;4.9;;
49900;SDS011;35789;48.414;12.768;2024-02-14T08:30:00;10.7;;;4.9;;
49900;SDS011;35789;48.414;12.768;2024-02-14T08:35:00;10.7;;;4.9;;
49900;SDS011;35789;48.414;12.768;2024-02-14T08:40:00;10.7;;;4.9;;
49900;SDS011;35789;48.414;12.768;2024-02-14T08:45:00;10.7;;;4.9;;
49900;SDS011;35789;48.414;12.768;2024-02-14T08:50:00;11.5;;;6.5;;
49900;SDS011;35789;48.414;12.768;2024-02-14T08:55:00;11.5;;;6.5;;
49900;SDS011;35789;48.414;12.768;2024-02-14T09:00:00;11.5;;;6.5;;
49900;SDS011;35789;48.414;12.768;2024-02-14T09:05:00;11.5;;;6.5;;
49900;SDS011;35789;48.414;12.768;2024-02-14T09:10:00;11.5;;;6.5;;
49900;SDS011;35789;48.414;12.768;2024-02-14T09:15:00;11.5;;;6.5;;
49900;SDS011;35789;48.414;12.768;2024-02-14T09:20:01;12.9;;;5.5;;
49900;SDS011;35789;48.414;12.768;2024-02-14T09:25:00;12.9;;;5.5;;
49900;SDS011;35789;48.414;12.768;2024-02-14T09:30:00;12.9;;;5.5;;
49900;SDS011;35789;48.414;12.768;2024-02-14T09:35:00;12.9;;;5.5;;
49900;SDS011;35789;48.414;12.768;2024-02-14T09:40:00;12.9;;;5.5;;
49900;SDS011;35789;48.414;12.768;2024-02-14T09:45:00;12.9;;;5.5;;
49900;SDS011;35789;48.414;12.768;2024-02-14T09:50:01;5.8;;;2.8;;
49900;SDS011;35789;48.414;12.768;2024-02-14T09:55:01;5.8;;;2.8;;
49900;SDS011;35789;48.414;12.768;2024-02-14T10:00:00;5.8;;;2.8;;
49900;SDS011;35789;48.414;12.768;2024-02-14T10:05:00;5.8;;;2.8;;
49900;SDS011;35789;48.414;12.768;2024-02-14T10:10:06;5.8;;;2.8;;
49900;SDS011;35789;48.414;12.768;2024-02-14T10:15:00;5.8;;;2.8;;
49900;SDS011;35789;48.414;12.768;2024-02-14T10:20:01;8.5;;;4.2;;
49900;SDS011;35789;48.414;12.768;2024-02-14T10:25:00;8.5;;;4.2;;
49900;SDS011;35789;48.414;12.768;2024-02-14T10:30:00;8.5;;;4.2;;
49900;SDS011;35789;48.414;12.768;2024-02-14T10:35:00;8.5;;;4.2;;
49900;SDS011;35789;48.414;12.768;2024-02-14T10:40:01;8.5;;;4.2;;
49900;SDS011;35789;48.414;12.768;2024-02-14T10:45:00;8.5;;;4.2;;
49900;SDS011;35789;48.414;12.768;2024-02-14T10:50:02;7.5;;;3.3;;
49900;SDS011;35789;48.414;12.768;2024-02-14T10:55:03;7.5;;;3.3;;
49900;SDS011;35789;48.414;12.768;2024-02-14T11:00:03;7.5;;;3.3;;
49900;SDS011;35789;48.414;12.768;2024-02-14T11:05:01;7.5;;;3.3;;
49900;SDS011;35789;48.414;12.768;2024-02-14T11:10:00;7.5;;;3.3;;
49900;SDS011;35789;48.414;12.768;2024-02-14T11:15:00;7.5;;;3.3;;
49900;SDS011;35789;48.414;12.768;2024-02-14T11:25:07;7.3;;;3.6;;
49900;SDS011;35789;48.414;12.768;2024-02-14T11:30:00;7.3;;;3.6;;
49900;SDS011;35789;48.414;12.768;2024-02-14T11:35:00;7.3;;;3.6;;
49900;SDS011;35789;48.414;12.768;2024-02-14T11:40:00;7.3;;;3.6;;
49900;SDS011;35789;48.414;12.768;2024-02-14T11:45:00;7.3;;;3.6;;
49900;SDS011;35789;48.414;12.768;2024-02-14T11:50:00;7.4;;;2.9;;
49900;SDS011;35789;48.414;12.768;2024-02-14T11:55:00;7.4;;;2.9;;
49900;SDS011;35789;48.414;12.768;2024-02-14T12:00:00;7.4;;;2.9;;
49900;SDS011;35789;48.414;12.768;2024-02-14T12:05:00;7.4;;;2.9;;
49900;SDS011;35789;48.414;12.768;2024-02-14T12:10:00;7.4;;;2.9;;
49900;SDS011;35789;48.414;12.768;2024-02-14T12:15:01;7.4;;;2.9;;
49900;SDS011;35789;48.414;12.768;2024-02-14T12:20:05;5.0;;;1.8;;
49900;SDS011;35789;48.414;12.768;2024-02-14T12:25:00;5.0;;;1.8;;
49900;SDS011;35789;48.414;12.768;2024-02-14T12:30:03;5.0;;;1.8;;
49900;SDS011;35789;48.414;12.768;2024-02-14T12:35:00;5.0;;;1.8;;
49900;SDS011;35789;48.414;12.768;2024-02-14T12:40:00;5.0;;;1.8;;
49900;SDS011;35789;48.414;12.768;2024-02-14T12:45:00;5.0;;;1.8;;
49900;SDS011;35789;48.414;12.768;2024-02-14T12:50:00;4.3;;;1.5;;
49900;SDS011;35789;48.414;12.768;2024-02-14T12:55:00;4.3;;;1.5;;
49900;SDS011;35789;48.414;12.768;2024-02-14T13:00:00;4.3;;;1.5;;
49900;SDS011;35789;48.414;12.768;2024-02-14T13:05:00;4.3;;;1.5;;
49900;SDS011;35789;48.414;12.768;2024-02-14T13:10:00;4.3;;;1.5;;
49900;SDS011;35789;48.414;12.768;2024-02-14T13:15:00;4.3;;;1.5;;
49900;SDS011;35789;48.414;12.768;2024-02-14T13:20:00;7.7;;;2.6;;
49900;SDS011;35789;48.414;12.768;2024-02-14T13:25:00;7.7;;;2.6;;
49900;SDS011;35789;48.414;12.768;2024-02-14T13:30:00;7.7;;;2.6;;
49900;SDS011;35789;48.414;12.768;2024-02-14T13:35:00;7.7;;;2.6;;
49900;SDS011;35789;48.414;12.768;2024-02-14T13:40:00;7.7;;;2.6;;
49900;SDS011;35789;48.414;12.768;2024-02-14T13:45:00;7.7;;;2.6;;
49900;SDS011;35789;48.414;12.768;2024-02-14T13:50:00;5.8;;;2.2;;
49900;SDS011;35789;48.414;12.768;2024-02-14T13:55:00;5.8;;;2.2;;
49900;SDS011;35789;48.414;12.768;2024-02-14T14:00:00;5.8;;;2.2;;
49900;SDS011;35789;48.414;12.768;2024-02-14T14:05:00;5.8;;;2.2;;
49900;SDS011;35789;48.414;12.768;2024-02-14T14:10:00;5.8;;;2.2;;
49900;SDS011;35789;48.414;12.768;2024-02-14T14:15:01;5.8;;;2.2;;
49900;SDS011;35789;48.414;12.768;2024-02-14T14:20:00;4.5;;;2.0;;
49900;SDS011;35789;48.414;12.768;2024-02-14T14:25:00;4.5;;;2.0;;
49900;SDS011;35789;48.414;12.768;2024-02-14T14:30:00;4.5;;;2.0;;
49900;SDS011;35789;48.414;12.768;2024-02-14T14:35:00;4.5;;;2.0;;
49900;SDS011;35789;48.414;12.768;2024-02-14T14:40:00;4.5;;;2.0;;
49900;SDS011;35789;48.414;12.768;2024-02-14T14:45:00;4.5;;;2.0;;
49900;SDS011;35789;48.414;12.768;2024-02-14T14:50:00;7.4;;;2.8;;
49900;SDS011;35789;48.414;12.768;2024-02-14T14:55:00;7.4;;;2.8;;
49900;SDS011;35789;48.414;12.768;2024-02-14T15:00:00;7.4;;;2.8;;
49900;SDS011;35789;48.414;12.768;2024-02-14T15:05:00;7.4;;;2.8;;
49900;SDS011;35789;48.414;12.768;2024-02-14T15:10:00;7.4;;;2.8;;
49900;SDS011;35789;48.414;12.768;2024-02-14T15:15:00;7.4;;;2.8;;
49900;SDS011;35789;48.414;12.768;2024-02-14T15:20:00;18.4;;;8.5;;
49900;SDS011;35789;48.414;12.768;2024-02-14T15:25:00;18.4;;;8.5;;
49900;SDS011;35789;48.414;12.768;2024-02-14T15:30:00;18.4;;;8.5;;
49900;SDS011;35789;48.414;12.768;2024-02-14T15:35:00;18.4;;;8.5;;
49900;SDS011;35789;48.414;12.768;2024-02-14T15:40:00;18.4;;;8.5;;
49900;SDS011;35789;48.414;12.768;2024-02-14T15:45:00;18.4;;;8.5;;
49900;SDS011;35789;48.414;12.768;2024-02-14T15:50:00;8.5;;;4.0;;
49900;SDS011;35789;48.414;12.768;2024-02-14T15:55:00;8.5;;;4.0;;
49900;SDS011;35789;48.414;12.768;2024-02-14T16:00:01;8.5;;;4.0;;
49900;SDS011;35789;48.414;12.768;2024-02-14T16:05:00;8.5;;;4.0;;
49900;SDS011;35789;48.414;12.768;2024-02-14T16:10:00;8.5;;;4.0;;
49900;SDS011;35789;48.414;12.768;2024-02-14T16:15:00;8.5;;;4.0;;
49900;SDS011;35789;48.414;12.768;2024-02-14T16:20:00;5.6;;;2.4;;
49900;SDS011;35789;48.414;12.768;2024-02-14T16:25:00;5.6;;;2.4;;
49900;SDS011;35789;48.414;12.768;2024-02-14T16:30:00;5.6;;;2.4;;
49900;SDS011;35789;48.414;12.768;2024-02-14T16:35:00;5.6;;;2.4;;
49900;SDS011;35789;48.414;12.768;2024-02-14T16:40:00;5.6;;;2.4;;
49900;SDS011;35789;48.414;12.768;2024-02-14T16:45:00;5.6;;;2.4;;
49900;SDS011;35789;48.414;12.768;2024-02-14T16:50:00;5.7;;;2.5;;
49900;SDS011;35789;48.414;12.768;2024-02-14T16:55:00;5.7;;;2.5;;
49900;SDS011;35789;48.414;12.768;2024-02-14T17:00:00;5.7;;;2.5;;
49900;SDS011;35789;48.414;12.768;2024-02-14T17:05:00;5.7;;;2.5;;
49900;SDS011;35789;48.414;12.768;2024-02-14T17:10:00;5.7;;;2.5;;
49900;SDS011;35789;48.414;12.768;2024-02-14T17:15:00;5.7;;;2.5;;
49900;SDS011;35789;48.414;12.768;2024-02-14T17:20:00;8.5;;;3.6;;
49900;SDS011;35789;48.414;12.768;2024-02-14T17:25:00;8.5;;;3.6;;
49900;SDS011;35789;48.414;12.768;2024-02-14T17:30:00;8.5;;;3.6;;
49900;SDS011;35789;48.414;12.768;2024-02-14T17:35:00;8.5;;;3.6;;
49900;SDS011;35789;48.414;12.768;2024-02-14T17:40:00;8.5;;;3.6;;
49900;SDS011;35789;48.414;12.768;2024-02-14T17:45:00;8.5;;;3.6;;
49900;SDS011;35789;48.414;12.768;2024-02-14T17:50:00;7.6;;;4.0;;
49900;SDS011;35789;48.414;12.768;2024-02-14T17:55:00;7.6;;;4.0;;
49900;SDS011;35789;48.414;12.768;2024-02-14T18:00:00;7.6;;;4.0;;
49900;SDS011;35789;48.414;12.768;2024-02-14T18:05:00;7.6;;;4.0;;
49900;SDS011;35789;48.414;12.768;2024-02-14T18:10:00;7.6;;;4.0;;
49900;SDS011;35789;48.414;12.768;2024-02-14T18:15:00;7.6;;;4.0;;
49900;SDS011;35789;48.414;12.768;2024-02-14T18:20:00;7.8;;;3.5;;
49900;SDS011;35789;48.414;12.768;2024-02-14T18:25:00;7.8;;;3.5;;
49900;SDS011;35789;48.414;12.768;2024-02-14T18:30:00;7.8;;;3.5;;
49900;SDS011;35789;48.414;12.768;2024-02-14T18:35:00;7.8;;;3.5;;
49900;SDS011;35789;48.414;12.768;2024-02-14T18:40:00;7.8;;;3.5;;
49900;SDS011;35789;48.414;12.768;2024-02-14T18:45:00;7.8;;;3.5;;
49900;SDS011;35789;48.414;12.768;2024-02-14T18:50:00;12.5;;;5.9;;
49900;SDS011;35789;48.414;12.768;2024-02-14T18:55:00;12.5;;;5.9;;
49900;SDS011;35789;48.414;12.768;2024-02-14T19:00:00;12.5;;;5.9;;
49900;SDS011;35789;48.414;12.768;2024-02-14T19:05:00;12.5;;;5.9;;
49900;SDS011;35789;48.414;12.768;2024-02-14T19:10:00;12.5;;;5.9;;
49900;SDS011;35789;48.414;12.768;2024-02-14T19:15:00;12.5;;;5.9;;
49900;SDS011;35789;48.414;12.768;2024-02-14T19:20:00;12.0;;;6.2;;
49900;SDS011;35789;48.414;12.768;2024-02-14T19:25:00;12.0;;;6.2;;
49900;SDS011;35789;48.414;12.768;2024-02-14T19:30:00;12.0;;;6.2;;
49900;SDS011;35789;48.414;12.768;2024-02-14T19:35:00;12.0;;;6.2;;
49900;SDS011;35789;48.414;12.768;2024-02-14T19:40:00;12.0;;;6.2;;
49900;SDS011;35789;48.414;12.768;2024-02-14T19:45:00;12.0;;;6.2;;
49900;SDS011;35789;48.414;12.768;2024-02-14T19:50:00;44.7;;;23.8;;
49900;SDS011;35789;48.414;12.768;2024-02-14T20:00:00;44.7;;;23.8;;
49900;SDS011;35789;48.414;12.768;2024-02-14T20:05:00;44.7;;;23.8;;
49900;SDS011;35789;48.414;12.768;2024-02-14T20:10:00;44.7;;;23.8;;
49900;SDS011;35789;48.414;12.768;2024-02-14T20:15:00;44.7;;;23.8;;
49900;SDS011;35789;48.414;12.768;2024-02-14T20:20:00;14.0;;;8.5;;
49900;SDS011;35789;48.414;12.768;2024-02-14T20:25:00;14.0;;;8.5;;
49900;SDS011;35789;48.414;12.768;2024-02-14T20:30:00;14.0;;;8.5;;
49900;SDS011;35789;48.414;12.768;2024-02-14T20:35:00;14.0;;;8.5;;
49900;SDS011;35789;48.414;12.768;2024-02-14T20:40:00;14.0;;;8.5;;
49900;SDS011;35789;48.414;12.768;2024-02-14T20:45:00;14.0;;;8.5;;
49900;SDS011;35789;48.414;12.768;2024-02-14T20:50:00;11.8;;;6.3;;
49900;SDS011;35789;48.414;12.768;2024-02-14T20:55:00;11.8;;;6.3;;
49900;SDS011;35789;48.414;12.768;2024-02-14T21:00:00;11.8;;;6.3;;
49900;SDS011;35789;48.414;12.768;2024-02-14T21:05:00;11.8;;;6.3;;
49900;SDS011;35789;48.414;12.768;2024-02-14T21:10:00;11.8;;;6.3;;
49900;SDS011;35789;48.414;12.768;2024-02-14T21:15:00;11.8;;;6.3;;
49900;SDS011;35789;48.414;12.768;2024-02-14T21:20:00;10.5;;;5.4;;
49900;SDS011;35789;48.414;12.768;2024-02-14T21:25:00;10.5;;;5.4;;
49900;SDS011;35789;48.414;12.768;2024-02-14T21:30:00;10.5;;;5.4;;
49900;SDS011;35789;48.414;12.768;2024-02-14T21:35:00;10.5;;;5.4;;
49900;SDS011;35789;48.414;12.768;2024-02-14T21:40:00;10.5;;;5.4;;
49900;SDS011;35789;48.414;12.768;2024-02-14T21:45:00;10.5;;;5.4;;
49900;SDS011;35789;48.414;12.768;2024-02-14T21:50:00;15.1;;;7.0;;
49900;SDS011;35789;48.414;12.768;2024-02-14T21:55:00;15.1;;;7.0;;
49900;SDS011;35789;48.414;12.768;2024-02-14T22:00:00;15.1;;;7.0;;
49900;SDS011;35789;48.414;12.768;2024-02-14T22:05:00;15.1;;;7.0;;
49900;SDS011;35789;48.414;12.768;2024-02-14T22:10:00;15.1;;;7.0;;
49900;SDS011;35789;48.414;12.768;2024-02-14T22:15:00;15.1;;;7.0;;
49900;SDS011;35789;48.414;12.768;2024-02-14T22:20:00;15.1;;;7.1;;
49900;SDS011;35789;48.414;12.768;2024-02-14T22:25:00;15.1;;;7.1;;
49900;SDS011;35789;48.414;12.768;2024-02-14T22:30:00;15.1;;;7.1;;
49900;SDS011;35789;48.414;12.768;2024-02-14T22:35:00;15.1;;;7.1;;
49900;SDS011;35789;48.414;12.768;2024-02-14T22:40:00;15.1;;;7.1;;
49900;SDS011;35789;48.414;12.768;2024-02-14T22:45:00;15.1;;;7.1;;
49900;SDS011;35789;48.414;12.768;2024-02-14T22:50:00;16.9;;;8.2;;
49900;SDS011;35789;48.414;12.768;2024-02-14T22:55:00;16.9;;;8.2;;
49900;SDS011;35789;48.414;12.768;2024-02-14T23:00:00;16.9;;;8.2;;
49900;SDS011;35789;48.414;12.768;2024-02-14T23:05:00;16.9;;;8.2;;
49900;SDS011;35789;48.414;12.768;2024-02-14T23:10:00;16.9;;;8.2;;
49900;SDS011;35789;48.414;12.768;2024-02-14T23:15:00;16.9;;;7.9;;
49900;SDS011;35789;48.414;12.768;2024-02-14T23:20:00;15.9;;;7.9;;
49900;SDS011;35789;48.414;12.768;2024-02-14T23:25:01;15.9;;;7.9;;
49900;SDS011;35789;48.414;12.768;2024-02-14T23:30:00;15.9;;;7.9;;
49900;SDS011;35789;48.414;12.768;2024-02-14T23:35:00;15.9;;;7.9;;
49900;SDS011;35789;48.414;12.768;2024-02-14T23:40:00;15.9;;;7.9;;
49900;SDS011;35789;48.414;12.768;2024-02-14T23:45:00;24.5;;;14.4;;
49900;SDS011;35789;48.414;12.768;2024-02-14T23:50:00;24.5;;;14.4;;
49900;SDS011;35789;48.414;12.768;2024-02-14T23:55:00;24.5;;;14.4;;
